sensor_id;sensor_type;location;lat;lon;timestamp;P1;P2;P0
47709;PMS7003;33473;51.640;5.892;2023-03-26T00:00:45;9.97;7.75;4.26
47709;PMS7003;33473;51.640;5.892;2023-03-26T00:14:05;7.81;7.42;4.26
47709;PMS7003;33473;51.640;5.892;2023-03-26T00:27:24;10.57;8.29;4.48
47709;PMS7003;33473;51.640;5.892;2023-03-26T00:40:44;9.37;7.86;3.82
47709;PMS7003;33473;51.640;5.892;2023-03-26T00:54:04;15.61;7.64;3.61
47709;PMS7003;33473;51.640;5.892;2023-03-26T01:07:23;9.73;6.66;3.17
47709;PMS7003;33473;51.640;5.892;2023-03-26T01:20:43;5.89;6.55;3.06
47709;PMS7003;33473;51.640;5.892;2023-03-26T01:34:03;12.13;5.68;2.73
47709;PMS7003;33473;51.640;5.892;2023-03-26T01:47:22;7.21;6.0;2.73
47709;PMS7003;33473;51.640;5.892;2023-03-26T02:00:42;8.89;5.46;2.62
47709;PMS7003;33473;51.640;5.892;2023-03-26T02:14:02;7.57;5.13;2.52
47709;PMS7003;33473;51.640;5.892;2023-03-26T02:27:21;6.13;4.48;2.08
47709;PMS7003;33473;51.640;5.892;2023-03-26T02:40:41;4.93;4.7;1.97
47709;PMS7003;33473;51.640;5.892;2023-03-26T02:54:01;5.65;4.91;2.3
47709;PMS7003;33473;51.640;5.892;2023-03-26T03:07:20;3.12;4.37;2.19
47709;PMS7003;33473;51.640;5.892;2023-03-26T03:20:40;7.69;4.26;2.41
47709;PMS7003;33473;51.640;5.892;2023-03-26T03:34:00;6.61;4.48;2.3
47709;PMS7003;33473;51.640;5.892;2023-03-26T03:47:19;4.69;4.48;2.52
47709;PMS7003;33473;51.640;5.892;2023-03-26T04:00:39;14.17;4.37;2.41
47709;PMS7003;33473;51.640;5.892;2023-03-26T04:13:59;8.65;4.48;2.52
47709;PMS7003;33473;51.640;5.892;2023-03-26T04:27:18;5.89;4.91;2.95
47709;PMS7003;33473;51.640;5.892;2023-03-26T04:40:38;3.12;4.37;2.52
47709;PMS7003;33473;51.640;5.892;2023-03-26T04:53:58;1.56;4.26;2.41
47709;PMS7003;33473;51.640;5.892;2023-03-26T05:07:18;4.57;4.7;2.73
47709;PMS7003;33473;51.640;5.892;2023-03-26T05:20:37;2.76;5.02;2.62
47709;PMS7003;33473;51.640;5.892;2023-03-26T05:33:57;3.97;4.7;2.41
47709;PMS7003;33473;51.640;5.892;2023-03-26T05:47:17;5.05;4.91;2.84
47709;PMS7003;33473;51.640;5.892;2023-03-26T06:00:36;7.57;4.91;2.84
47709;PMS7003;33473;51.640;5.892;2023-03-26T06:13:56;4.57;4.8;2.73
47709;PMS7003;33473;51.640;5.892;2023-03-26T06:27:16;9.97;5.68;3.06
47709;PMS7003;33473;51.640;5.892;2023-03-26T06:40:35;3.6;5.9;3.39
47709;PMS7003;33473;51.640;5.892;2023-03-26T06:53:55;3.48;5.46;3.61
47709;PMS7003;33473;51.640;5.892;2023-03-26T07:07:15;3.97;6.22;3.71
47709;PMS7003;33473;51.640;5.892;2023-03-26T07:20:34;7.69;6.88;4.04
47709;PMS7003;33473;51.640;5.892;2023-03-26T07:33:54;3.12;4.8;2.84
47709;PMS7003;33473;51.640;5.892;2023-03-26T07:47:14;4.45;5.46;3.17
47709;PMS7003;33473;51.640;5.892;2023-03-26T08:00:33;3.97;5.24;2.84
47709;PMS7003;33473;51.640;5.892;2023-03-26T08:13:53;2.4;3.61;2.41
47709;PMS7003;33473;51.640;5.892;2023-03-26T08:27:13;7.33;5.46;2.52
47709;PMS7003;33473;51.640;5.892;2023-03-26T08:40:33;2.4;3.5;2.41
47709;PMS7003;33473;51.640;5.892;2023-03-26T08:53:52;1.68;4.48;2.95
47709;PMS7003;33473;51.640;5.892;2023-03-26T09:07:12;2.28;4.59;2.95
47709;PMS7003;33473;51.640;5.892;2023-03-26T09:20:32;2.88;5.46;3.39
47709;PMS7003;33473;51.640;5.892;2023-03-26T09:33:51;2.4;3.71;2.41
47709;PMS7003;33473;51.640;5.892;2023-03-26T09:47:11;2.16;3.39;2.19
47709;PMS7003;33473;51.640;5.892;2023-03-26T10:00:31;0.01;2.95;2.08
47709;PMS7003;33473;51.640;5.892;2023-03-26T10:13:51;0.01;2.73;1.86
47709;PMS7003;33473;51.640;5.892;2023-03-26T10:27:10;0.24;2.62;1.86
47709;PMS7003;33473;51.640;5.892;2023-03-26T10:40:30;0.01;2.08;1.43
47709;PMS7003;33473;51.640;5.892;2023-03-26T10:53:49;0.01;2.3;1.54
47709;PMS7003;33473;51.640;5.892;2023-03-26T11:07:09;0.01;2.08;1.32
47709;PMS7003;33473;51.640;5.892;2023-03-26T11:20:29;0.36;1.86;1.32
47709;PMS7003;33473;51.640;5.892;2023-03-26T11:33:48;0.01;2.3;1.75
47709;PMS7003;33473;51.640;5.892;2023-03-26T11:47:08;0.0;3.17;2.3
47709;PMS7003;33473;51.640;5.892;2023-03-26T12:00:28;0.01;2.95;2.19
47709;PMS7003;33473;51.640;5.892;2023-03-26T12:13:47;0.01;2.95;2.3
47709;PMS7003;33473;51.640;5.892;2023-03-26T12:27:07;0.24;3.5;2.84
47709;PMS7003;33473;51.640;5.892;2023-03-26T12:40:27;0.36;2.73;1.86
47709;PMS7003;33473;51.640;5.892;2023-03-26T12:53:46;0.01;2.41;1.86
47709;PMS7003;33473;51.640;5.892;2023-03-26T13:07:06;0.01;2.84;2.41
47709;PMS7003;33473;51.640;5.892;2023-03-26T13:20:26;0.84;3.5;2.62
47709;PMS7003;33473;51.640;5.892;2023-03-26T13:33:45;4.21;6.22;4.15
47709;PMS7003;33473;51.640;5.892;2023-03-26T13:47:05;6.37;8.4;5.68
47709;PMS7003;33473;51.640;5.892;2023-03-26T14:00:25;7.09;9.38;5.9
47709;PMS7003;33473;51.640;5.892;2023-03-26T14:13:44;6.61;8.84;5.68
47709;PMS7003;33473;51.640;5.892;2023-03-26T14:27:04;9.49;10.15;5.57
47709;PMS7003;33473;51.640;5.892;2023-03-26T14:40:24;10.21;7.75;4.7
47709;PMS7003;33473;51.640;5.892;2023-03-26T14:53:43;5.77;7.2;4.91
47709;PMS7003;33473;51.640;5.892;2023-03-26T15:07:03;7.57;7.97;5.13
47709;PMS7003;33473;51.640;5.892;2023-03-26T15:20:23;6.73;8.4;5.35
47709;PMS7003;33473;51.640;5.892;2023-03-26T15:33:43;5.17;6.0;4.15
47709;PMS7003;33473;51.640;5.892;2023-03-26T15:47:02;4.21;4.37;2.95
47709;PMS7003;33473;51.640;5.892;2023-03-26T16:00:22;1.2;3.82;2.73
47709;PMS7003;33473;51.640;5.892;2023-03-26T16:13:42;2.4;4.15;2.73
47709;PMS7003;33473;51.640;5.892;2023-03-26T16:27:01;4.93;3.82;2.41
47709;PMS7003;33473;51.640;5.892;2023-03-26T16:40:21;1.32;3.61;2.41
47709;PMS7003;33473;51.640;5.892;2023-03-26T16:53:41;2.04;3.61;2.08
47709;PMS7003;33473;51.640;5.892;2023-03-26T17:07:00;1.8;4.26;2.62
47709;PMS7003;33473;51.640;5.892;2023-03-26T17:20:20;3.12;3.5;2.08
47709;PMS7003;33473;51.640;5.892;2023-03-26T17:33:40;0.48;3.17;2.08
47709;PMS7003;33473;51.640;5.892;2023-03-26T17:46:59;0.96;3.06;1.86
47709;PMS7003;33473;51.640;5.892;2023-03-26T18:00:19;0.24;2.84;1.75
47709;PMS7003;33473;51.640;5.892;2023-03-26T18:13:39;1.32;2.3;1.43
47709;PMS7003;33473;51.640;5.892;2023-03-26T18:26:58;1.68;2.95;1.54
47709;PMS7003;33473;51.640;5.892;2023-03-26T18:40:18;1.8;2.52;1.54
47709;PMS7003;33473;51.640;5.892;2023-03-26T18:53:38;0.84;2.84;1.54
47709;PMS7003;33473;51.640;5.892;2023-03-26T19:06:57;2.76;2.19;1.32
47709;PMS7003;33473;51.640;5.892;2023-03-26T19:20:17;0.01;2.41;1.54
47709;PMS7003;33473;51.640;5.892;2023-03-26T19:33:37;0.84;2.62;1.64
47709;PMS7003;33473;51.640;5.892;2023-03-26T19:46:56;0.01;2.08;1.54
47709;PMS7003;33473;51.640;5.892;2023-03-26T20:00:16;0.01;1.86;
47709;PMS7003;33473;51.640;5.892;2023-03-26T20:13:36;0.48;1.64;1.21
47709;PMS7003;33473;51.640;5.892;2023-03-26T20:26:55;0.72;1.97;1.43
47709;PMS7003;33473;51.640;5.892;2023-03-26T20:40:15;0.01;2.3;1.43
47709;PMS7003;33473;51.640;5.892;2023-03-26T20:53:35;0.12;2.19;1.32
47709;PMS7003;33473;51.640;5.892;2023-03-26T21:06:55;0.12;2.19;1.21
47709;PMS7003;33473;51.640;5.892;2023-03-26T21:20:14;0.72;2.84;1.32
47709;PMS7003;33473;51.640;5.892;2023-03-26T21:33:34;0.72;2.41;1.54
47709;PMS7003;33473;51.640;5.892;2023-03-26T21:46:54;0.0;2.08;1.32
47709;PMS7003;33473;51.640;5.892;2023-03-26T22:00:13;0.48;2.52;1.54
47709;PMS7003;33473;51.640;5.892;2023-03-26T22:13:33;0.12;2.08;1.32
47709;PMS7003;33473;51.640;5.892;2023-03-26T22:26:53;0.12;2.73;1.64
47709;PMS7003;33473;51.640;5.892;2023-03-26T22:40:12;0.84;2.08;1.43
47709;PMS7003;33473;51.640;5.892;2023-03-26T22:53:32;1.08;2.52;1.54
47709;PMS7003;33473;51.640;5.892;2023-03-26T23:06:52;0.01;2.08;1.32
47709;PMS7003;33473;51.640;5.892;2023-03-26T23:20:11;1.68;2.3;1.54
47709;PMS7003;33473;51.640;5.892;2023-03-26T23:33:31;0.48;2.3;1.54
47709;PMS7003;33473;51.640;5.892;2023-03-26T23:46:51;0.6;2.19;1.64
